createdAt,value
2019-03-16T00:00:27.994Z,4.93
2019-03-16T00:02:58.514Z,5.40
2019-03-16T00:05:29.778Z,4.03
2019-03-16T00:08:00.414Z,4.17
2019-03-16T00:10:35.025Z,2.87
2019-03-16T00:13:06.472Z,3.33
2019-03-16T00:15:37.825Z,3.20
2019-03-16T00:18:09.684Z,6.93
2019-03-16T00:20:40.013Z,4.90
2019-03-16T00:23:10.733Z,3.93
2019-03-16T00:25:40.953Z,4.70
2019-03-16T00:28:18.966Z,5.40
2019-03-16T00:30:49.805Z,4.47
2019-03-16T00:33:21.245Z,3.20
2019-03-16T00:35:52.516Z,4.07
2019-03-16T00:38:23.615Z,5.77
2019-03-16T00:40:54.174Z,3.60
2019-03-16T00:43:24.915Z,5.50
2019-03-16T00:45:55.327Z,3.57
2019-03-16T00:48:25.344Z,5.87
2019-03-16T00:50:55.453Z,5.73
2019-03-16T00:53:25.785Z,3.87
2019-03-16T00:55:55.693Z,3.47
2019-03-16T00:58:26.552Z,6.37
2019-03-16T01:00:58.285Z,5.00
2019-03-16T01:03:28.823Z,6.33
2019-03-16T01:05:59.953Z,5.47
2019-03-16T01:08:30.685Z,3.10
2019-03-16T01:11:00.933Z,4.93
2019-03-16T01:13:30.827Z,4.33
2019-03-16T01:16:00.852Z,5.50
2019-03-16T01:18:46.943Z,7.87
2019-03-16T01:21:17.263Z,5.20
2019-03-16T01:23:48.733Z,4.37
2019-03-16T01:26:19.854Z,5.67
2019-03-16T01:28:51.003Z,6.27
2019-03-16T01:31:21.323Z,4.07
2019-03-16T01:33:51.645Z,3.17
2019-03-16T01:36:21.765Z,4.00
2019-03-16T01:38:51.483Z,5.07
2019-03-16T01:41:21.792Z,3.80
2019-03-16T01:43:51.505Z,6.93
2019-03-16T01:46:22.643Z,6.00
2019-03-16T01:48:52.976Z,6.57
2019-03-16T01:51:23.315Z,5.17
2019-03-16T01:53:53.205Z,4.90
2019-03-16T01:56:23.523Z,4.17
2019-03-16T01:58:53.442Z,3.87
2019-03-16T02:01:23.671Z,8.40
2019-03-16T02:03:53.679Z,4.20
2019-03-16T02:06:23.730Z,7.80
2019-03-16T02:08:54.743Z,3.93
2019-03-16T02:11:25.983Z,6.03
2019-03-16T02:13:56.512Z,7.53
2019-03-16T02:16:26.731Z,5.50
2019-03-16T02:19:00.035Z,5.93
2019-03-16T02:21:29.956Z,7.60
2019-03-16T02:24:00.163Z,5.87
2019-03-16T02:26:30.914Z,9.07
2019-03-16T02:29:00.912Z,5.03
2019-03-16T02:31:31.352Z,5.03
2019-03-16T02:34:05.963Z,7.93
2019-03-16T02:36:39.893Z,5.80
2019-03-16T02:39:13.896Z,6.57
2019-03-16T02:41:45.457Z,7.27
2019-03-16T02:44:15.753Z,3.07
2019-03-16T02:46:45.673Z,4.10
2019-03-16T02:49:15.390Z,7.33
2019-03-16T02:51:45.504Z,6.10
2019-03-16T02:54:15.517Z,5.10
2019-03-16T02:56:45.734Z,5.73
2019-03-16T02:59:15.964Z,4.93
2019-03-16T03:01:46.706Z,10.43
2019-03-16T03:04:16.504Z,6.13
2019-03-16T03:06:47.254Z,4.67
2019-03-16T03:09:17.143Z,5.70
2019-03-16T03:11:48.508Z,5.43
2019-03-16T03:14:18.722Z,5.20
2019-03-16T03:16:48.843Z,3.43
2019-03-16T03:19:19.274Z,5.97
2019-03-16T03:21:50.121Z,6.67
2019-03-16T03:24:20.522Z,6.93
2019-03-16T03:26:50.856Z,5.90
2019-03-16T03:29:21.094Z,7.40
2019-03-16T03:31:51.605Z,6.00
2019-03-16T03:34:21.826Z,6.83
2019-03-16T03:36:51.854Z,4.57
2019-03-16T03:39:21.895Z,4.40
2019-03-16T03:41:52.093Z,6.80
2019-03-16T03:44:22.705Z,7.57
2019-03-16T03:46:55.114Z,5.90
2019-03-16T03:49:25.451Z,9.60
2019-03-16T03:51:55.961Z,7.77
2019-03-16T03:54:26.462Z,8.43
2019-03-16T03:56:56.699Z,7.23
2019-03-16T03:59:26.707Z,9.03
2019-03-16T04:01:57.127Z,8.30
2019-03-16T04:04:27.043Z,7.77
2019-03-16T04:06:57.076Z,9.97
2019-03-16T04:09:27.374Z,9.50
2019-03-16T04:11:57.714Z,7.17
2019-03-16T04:14:28.858Z,7.07
2019-03-16T04:16:59.497Z,7.80
2019-03-16T04:19:29.905Z,9.07
2019-03-16T04:22:00.123Z,7.17
2019-03-16T04:24:30.153Z,9.93
2019-03-16T04:27:14.971Z,4.97
2019-03-16T04:29:31.712Z,8.53
2019-03-16T04:32:01.735Z,11.73
2019-03-16T04:34:31.842Z,7.37
2019-03-16T04:37:02.372Z,6.77
2019-03-16T04:39:32.493Z,7.97
2019-03-16T04:42:02.844Z,7.30
2019-03-16T04:44:32.875Z,10.93
2019-03-16T04:47:03.053Z,11.50
2019-03-16T04:49:33.392Z,6.17
2019-03-16T04:52:03.812Z,10.30
2019-03-16T04:54:34.235Z,32.87
2019-03-16T04:57:05.693Z,9.90
2019-03-16T04:59:37.853Z,10.43
2019-03-16T05:02:08.384Z,12.37
2019-03-16T05:04:42.648Z,9.93
2019-03-16T05:07:13.526Z,11.80
2019-03-16T05:09:44.275Z,14.00
2019-03-16T05:12:14.783Z,9.93
2019-03-16T05:14:45.114Z,12.40
2019-03-16T05:17:15.533Z,13.50
2019-03-16T05:19:45.655Z,9.17
2019-03-16T05:22:15.933Z,7.37
2019-03-16T05:24:45.905Z,11.73
2019-03-16T05:27:16.132Z,13.73
2019-03-16T05:29:46.353Z,11.50
2019-03-16T05:32:16.453Z,11.60
2019-03-16T05:34:56.317Z,10.50
2019-03-16T05:37:18.746Z,10.00
2019-03-16T05:39:49.075Z,13.83
2019-03-16T05:42:19.812Z,17.23
2019-03-16T05:44:49.712Z,23.57
2019-03-16T05:47:19.832Z,14.60
2019-03-16T05:49:50.664Z,16.97
2019-03-16T05:52:21.121Z,14.37
2019-03-16T05:54:51.633Z,8.13
2019-03-16T05:57:21.955Z,12.63
2019-03-16T05:59:52.165Z,10.73
2019-03-16T06:02:22.285Z,13.80
2019-03-16T06:04:53.013Z,11.60
2019-03-16T06:07:23.033Z,12.47
2019-03-16T06:09:53.255Z,12.40
2019-03-16T06:12:23.793Z,10.53
2019-03-16T06:14:53.693Z,10.63
2019-03-16T06:17:24.745Z,9.60
2019-03-16T06:19:55.366Z,9.50
2019-03-16T06:22:26.533Z,12.80
2019-03-16T06:24:57.866Z,11.87
2019-03-16T06:27:28.925Z,8.13
2019-03-16T06:30:00.767Z,11.63
2019-03-16T06:32:32.729Z,9.90
2019-03-16T06:35:03.681Z,12.57
2019-03-16T06:37:34.393Z,14.30
2019-03-16T06:40:05.641Z,10.00
2019-03-16T06:42:37.092Z,8.40
2019-03-16T06:45:07.733Z,9.33
2019-03-16T06:47:38.445Z,11.47
2019-03-16T06:50:28.872Z,11.63
2019-03-16T06:53:01.345Z,9.00
2019-03-16T06:55:52.032Z,10.13
2019-03-16T06:58:29.845Z,10.90
2019-03-16T07:01:00.757Z,13.93
2019-03-16T07:03:31.094Z,10.77
2019-03-16T07:06:04.177Z,10.47
2019-03-16T07:08:34.512Z,9.90
2019-03-16T07:11:07.394Z,8.20
2019-03-16T07:13:38.952Z,11.83
2019-03-16T07:16:11.526Z,14.47
2019-03-16T07:18:43.164Z,13.03
2019-03-16T07:21:14.527Z,13.33
2019-03-16T07:23:46.273Z,10.37
2019-03-16T07:26:16.485Z,7.97
2019-03-16T07:28:47.633Z,9.37
2019-03-16T07:31:17.952Z,11.17
2019-03-16T07:33:51.865Z,9.70
2019-03-16T07:36:25.153Z,9.77
2019-03-16T07:39:08.785Z,10.73
2019-03-16T07:41:48.745Z,16.10
2019-03-16T07:44:19.792Z,11.93
2019-03-16T07:46:50.625Z,14.43
2019-03-16T07:49:24.265Z,15.17
2019-03-16T07:51:57.842Z,14.67
2019-03-16T07:54:32.865Z,19.80
2019-03-16T07:57:05.026Z,16.30
2019-03-16T07:59:37.288Z,14.37
2019-03-16T08:02:10.793Z,16.77
2019-03-16T08:04:56.905Z,14.43
2019-03-16T08:07:30.913Z,12.70
2019-03-16T08:10:06.955Z,13.67
2019-03-16T08:12:38.715Z,12.73
2019-03-16T08:15:11.506Z,14.73
2019-03-16T08:17:43.069Z,15.67
2019-03-16T08:20:13.701Z,13.37
2019-03-16T08:22:44.506Z,13.57
2019-03-16T08:25:15.672Z,10.03
2019-03-16T08:27:53.882Z,9.60
2019-03-16T08:30:23.687Z,7.40
2019-03-16T08:32:53.992Z,9.50
2019-03-16T08:35:24.865Z,8.23
2019-03-16T08:37:55.467Z,8.03
2019-03-16T08:40:30.513Z,13.87
2019-03-16T08:43:05.232Z,14.77
2019-03-16T08:45:42.153Z,11.67
2019-03-16T08:48:22.667Z,9.33
2019-03-16T08:50:48.425Z,14.67
2019-03-16T08:53:29.890Z,10.17
2019-03-16T08:56:00.153Z,6.83
2019-03-16T08:58:34.913Z,7.87
2019-03-16T09:01:05.875Z,9.83
2019-03-16T09:09:47.513Z,7.07
2019-03-16T09:15:39.754Z,9.23
2019-03-16T09:18:23.514Z,7.40
2019-03-16T09:20:58.545Z,7.27
2019-03-16T09:23:32.826Z,8.30
2019-03-16T09:26:23.952Z,8.23
2019-03-16T09:35:14.589Z,9.33
2019-03-16T09:37:59.056Z,8.20
2019-03-16T09:40:34.784Z,11.60
2019-03-16T09:43:12.897Z,8.73
2019-03-16T09:46:07.112Z,11.60
2019-03-16T09:55:51.465Z,8.70
2019-03-16T10:12:24.964Z,11.70
2019-03-16T10:15:18.554Z,13.97
2019-03-16T10:34:58.153Z,10.10
2019-03-16T10:37:29.432Z,9.03
2019-03-16T10:40:00.785Z,13.43
2019-03-16T10:42:33.499Z,11.40
2019-03-16T10:45:04.505Z,10.23
2019-03-16T10:47:35.325Z,8.53
2019-03-16T10:50:06.464Z,9.47
2019-03-16T10:52:39.370Z,8.97
2019-03-16T10:55:13.665Z,7.13
2019-03-16T10:57:44.114Z,8.50
2019-03-16T11:00:15.563Z,8.37
2019-03-16T11:02:45.875Z,9.27
2019-03-16T11:05:16.925Z,9.90
2019-03-16T11:07:47.664Z,10.47
2019-03-16T11:10:24.625Z,11.57
2019-03-16T11:12:56.684Z,5.43
2019-03-16T11:15:27.344Z,8.30
2019-03-16T11:17:58.883Z,12.90
2019-03-16T11:20:31.474Z,10.17
2019-03-16T11:23:11.973Z,9.00
2019-03-16T11:25:47.873Z,7.27
2019-03-16T11:28:28.657Z,8.73
2019-03-16T11:31:06.860Z,6.90
2019-03-16T11:33:42.645Z,10.90
2019-03-16T11:36:15.145Z,10.77
2019-03-16T11:38:50.825Z,8.63
2019-03-16T11:41:22.472Z,6.67
2019-03-16T11:44:00.283Z,10.03
2019-03-16T11:46:51.433Z,10.30
2019-03-16T11:49:34.953Z,12.30
2019-03-16T11:52:06.784Z,14.60
2019-03-16T11:54:45.708Z,9.47
2019-03-16T11:57:16.952Z,14.63
2019-03-16T11:59:51.801Z,10.63
2019-03-16T12:02:26.512Z,12.60
2019-03-16T12:05:02.272Z,8.50
2019-03-16T12:07:35.873Z,10.93
2019-03-16T12:10:10.504Z,14.03
2019-03-16T12:13:16.498Z,8.33
2019-03-16T12:15:38.073Z,8.23
2019-03-16T12:18:09.428Z,11.13
2019-03-16T12:20:40.668Z,11.50
2019-03-16T12:23:11.814Z,7.90
2019-03-16T12:25:53.505Z,7.83
2019-03-16T12:28:24.536Z,8.43
2019-03-16T12:31:03.460Z,11.00
2019-03-16T12:33:37.885Z,11.47
2019-03-16T12:36:09.547Z,9.87
2019-03-16T12:38:42.609Z,8.47
2019-03-16T12:41:15.968Z,8.83
2019-03-16T12:43:48.092Z,6.70
2019-03-16T12:46:43.005Z,8.37
2019-03-16T12:49:30.149Z,6.53
2019-03-16T12:52:05.862Z,5.23
2019-03-16T12:54:37.136Z,7.00
2019-03-16T12:57:14.473Z,8.40
2019-03-16T12:59:56.479Z,12.17
2019-03-16T13:02:28.983Z,6.77
2019-03-16T13:05:05.628Z,11.10
2019-03-16T13:07:36.865Z,8.00
2019-03-16T13:10:08.954Z,6.33
2019-03-16T13:12:40.584Z,6.43
2019-03-16T13:21:01.640Z,8.90
2019-03-16T13:23:38.746Z,5.70
2019-03-16T13:26:13.868Z,10.63
2019-03-16T13:28:45.524Z,9.97
2019-03-16T13:31:22.841Z,24.67
2019-03-16T13:37:06.871Z,7.10
2019-03-16T13:43:03.337Z,10.87
2019-03-16T13:45:35.792Z,11.03
2019-03-16T13:48:18.235Z,6.27
2019-03-16T13:51:07.999Z,5.37
2019-03-16T13:57:07.010Z,5.37
2019-03-16T14:06:14.959Z,7.33
2019-03-16T14:09:02.978Z,5.23
2019-03-16T14:11:34.733Z,6.60
2019-03-16T14:14:26.048Z,4.63
2019-03-16T14:18:02.427Z,3.50
2019-03-16T14:23:36.257Z,9.30
2019-03-16T14:36:36.152Z,5.70
2019-03-16T15:00:06.010Z,5.37
2019-03-16T15:06:34.997Z,10.53
2019-03-16T15:44:54.691Z,6.83
2019-03-16T15:47:25.546Z,5.50
2019-03-16T15:49:58.499Z,10.80
2019-03-16T15:52:29.966Z,9.60
2019-03-16T15:55:01.723Z,10.50
2019-03-16T15:57:34.144Z,8.47
2019-03-16T16:00:05.374Z,7.43
2019-03-16T16:02:35.887Z,10.27
2019-03-16T16:05:08.048Z,8.70
2019-03-16T16:07:40.514Z,10.70
2019-03-16T16:10:13.086Z,8.30
2019-03-16T16:12:48.938Z,12.00
2019-03-16T16:15:27.365Z,10.93
2019-03-16T16:18:00.154Z,12.93
2019-03-16T16:20:32.804Z,15.03
2019-03-16T16:23:05.290Z,12.43
2019-03-16T16:25:45.950Z,12.97
2019-03-16T16:28:19.133Z,15.27
2019-03-16T16:30:53.143Z,16.27
2019-03-16T16:33:49.907Z,18.17
2019-03-16T16:36:21.467Z,17.27
2019-03-16T16:38:54.019Z,17.53
2019-03-16T16:41:28.781Z,19.13
2019-03-16T16:44:00.630Z,16.33
2019-03-16T16:52:43.677Z,15.27
2019-03-16T16:55:15.739Z,14.80
2019-03-16T16:57:47.718Z,15.03
2019-03-16T17:06:31.989Z,12.50
2019-03-16T17:09:03.557Z,13.17
2019-03-16T17:11:38.673Z,9.77
2019-03-16T17:14:11.564Z,10.43
2019-03-16T17:23:27.494Z,14.83
2019-03-16T17:26:07.029Z,18.73
2019-03-16T17:28:41.858Z,19.80
2019-03-16T17:31:15.256Z,17.53
2019-03-16T17:33:48.139Z,18.93
2019-03-16T17:36:27.371Z,16.97
2019-03-16T17:39:08.163Z,14.47
2019-03-16T17:41:46.763Z,14.37
2019-03-16T17:47:06.038Z,17.47
2019-03-16T17:49:43.378Z,18.00
2019-03-16T17:52:21.050Z,18.57
2019-03-16T17:55:02.053Z,16.67
2019-03-16T17:57:48.437Z,14.57
2019-03-16T18:00:28.554Z,17.23
2019-03-16T18:15:34.605Z,32.00
2019-03-16T18:18:08.707Z,21.53
2019-03-16T18:20:41.993Z,20.60
2019-03-16T18:23:15.136Z,18.67
2019-03-16T18:25:48.607Z,16.23
2019-03-16T18:28:21.979Z,16.03
2019-03-16T18:30:57.729Z,37.87
2019-03-16T18:33:32.658Z,47.77
2019-03-16T18:36:14.888Z,40.70
2019-03-16T18:38:48.981Z,36.13
2019-03-16T18:41:23.912Z,68.00
2019-03-16T18:43:57.728Z,37.23
2019-03-16T18:46:41.758Z,20.00
2019-03-16T18:49:14.242Z,20.07
2019-03-16T18:51:47.627Z,15.17
2019-03-16T18:54:22.133Z,12.00
2019-03-16T18:57:02.002Z,13.57
2019-03-16T18:59:36.514Z,14.53
2019-03-16T19:02:20.849Z,14.83
2019-03-16T19:04:52.734Z,16.57
2019-03-16T19:07:31.570Z,15.50
2019-03-16T19:10:03.931Z,22.70
2019-03-16T19:12:39.056Z,20.30
2019-03-16T19:15:13.686Z,22.00
2019-03-16T19:17:58.707Z,26.40
2019-03-16T19:20:23.358Z,27.50
2019-03-16T19:23:10.848Z,19.80
2019-03-16T19:25:43.348Z,23.20
2019-03-16T19:28:18.999Z,21.87
2019-03-16T19:31:16.348Z,23.90
2019-03-16T19:33:52.789Z,26.10
2019-03-16T19:36:25.287Z,24.20
2019-03-16T19:38:58.889Z,26.93
2019-03-16T19:41:35.583Z,25.57
2019-03-16T19:44:13.367Z,27.37
2019-03-16T19:46:51.800Z,27.93
2019-03-16T19:49:23.957Z,28.63
2019-03-16T19:52:07.272Z,26.27
2019-03-16T19:54:45.166Z,27.80
2019-03-16T19:57:23.486Z,23.20
2019-03-16T20:00:01.186Z,37.77
2019-03-16T20:02:46.893Z,28.33
2019-03-16T20:05:12.614Z,28.27
2019-03-16T20:07:49.049Z,32.10
2019-03-16T20:10:26.573Z,24.07
2019-03-16T20:12:58.211Z,23.37
2019-03-16T20:15:31.697Z,21.80
2019-03-16T20:18:03.651Z,21.00
2019-03-16T20:20:37.561Z,18.97
2019-03-16T20:23:20.476Z,18.43
2019-03-16T20:25:54.133Z,23.67
2019-03-16T20:28:30.750Z,18.83
2019-03-16T20:31:05.991Z,20.47
2019-03-16T20:33:42.971Z,26.00
2019-03-16T20:36:25.092Z,20.30
2019-03-16T20:39:06.460Z,22.57
2019-03-16T20:41:39.252Z,19.47
2019-03-16T20:44:12.528Z,18.83
2019-03-16T20:46:45.001Z,21.80
2019-03-16T20:49:21.980Z,22.87
2019-03-16T20:52:04.131Z,21.27
2019-03-16T20:54:38.411Z,30.03
2019-03-16T20:57:09.552Z,24.30
2019-03-16T20:59:41.912Z,19.87
2019-03-16T21:02:16.642Z,22.63
2019-03-16T21:04:51.266Z,26.10
2019-03-16T21:07:22.919Z,22.03
2019-03-16T21:09:55.165Z,22.80
2019-03-16T21:12:31.047Z,26.50
2019-03-16T21:15:04.853Z,25.67
2019-03-16T21:17:37.021Z,24.63
2019-03-16T21:20:16.454Z,27.33
2019-03-16T21:22:50.887Z,26.10
2019-03-16T21:25:26.524Z,25.67
2019-03-16T21:27:58.610Z,26.67
2019-03-16T21:30:30.956Z,29.33
2019-03-16T21:33:08.046Z,24.63
2019-03-16T21:35:40.435Z,22.80
2019-03-16T21:38:11.868Z,23.07
2019-03-16T21:40:44.887Z,26.10
2019-03-16T21:43:17.531Z,28.73
2019-03-16T21:45:48.870Z,25.73
2019-03-16T21:48:21.044Z,29.17
2019-03-16T21:50:53.408Z,24.97
2019-03-16T21:53:24.262Z,28.80
2019-03-16T21:55:55.824Z,26.10
2019-03-16T21:58:26.848Z,24.27
2019-03-16T22:00:59.110Z,24.27
2019-03-16T22:03:41.718Z,25.23
2019-03-16T22:06:11.026Z,25.87
2019-03-16T22:08:43.157Z,26.30
2019-03-16T22:11:16.103Z,23.83
2019-03-16T22:13:51.533Z,25.77
2019-03-16T22:16:24.501Z,23.77
2019-03-16T22:18:57.127Z,24.83
2019-03-16T22:21:27.834Z,25.00
2019-03-16T22:23:59.376Z,24.63
2019-03-16T22:26:29.923Z,29.87
2019-03-16T22:29:04.638Z,25.50
2019-03-16T22:31:35.137Z,23.00
2019-03-16T22:34:05.792Z,26.97
2019-03-16T22:36:36.506Z,29.33
2019-03-16T22:39:10.521Z,26.27
2019-03-16T22:41:41.562Z,24.00
2019-03-16T22:44:11.906Z,23.90
2019-03-16T22:46:42.845Z,27.83
2019-03-16T22:49:14.133Z,23.10
2019-03-16T22:51:46.876Z,29.10
2019-03-16T22:54:19.234Z,27.47
2019-03-16T22:56:50.772Z,27.97
2019-03-16T22:59:20.897Z,24.50
2019-03-16T23:01:51.132Z,28.47
2019-03-16T23:04:21.256Z,26.17
2019-03-16T23:06:51.767Z,25.53
2019-03-16T23:09:21.779Z,25.80
2019-03-16T23:11:51.912Z,31.53
2019-03-16T23:14:22.549Z,29.80
2019-03-16T23:16:53.368Z,25.03
2019-03-16T23:19:23.281Z,24.87
2019-03-16T23:21:53.929Z,24.00
2019-03-16T23:24:24.145Z,26.23
2019-03-16T23:26:54.149Z,27.30
2019-03-16T23:29:24.383Z,25.77
2019-03-16T23:31:54.817Z,23.80
2019-03-16T23:34:24.712Z,23.83
2019-03-16T23:36:54.948Z,25.10
2019-03-16T23:39:25.475Z,24.90
2019-03-16T23:41:55.898Z,27.30
2019-03-16T23:44:25.697Z,26.30
2019-03-16T23:46:56.017Z,23.50
2019-03-16T23:49:26.033Z,20.97
2019-03-16T23:51:56.141Z,23.93
2019-03-16T23:54:26.486Z,25.03
2019-03-16T23:56:57.524Z,24.87
2019-03-16T23:59:27.861Z,23.87
